Список аэропортов
Фактическая погода:

21 апреля, 19:20
Температура: +9°C (+6.8*)
Ветер: южный 4 м/с
Давление: *770 мм
Без существ. явл.
Время (МСК)Темп. СВетерВлажностьДавлениеОблачностьОсадки
15:00+10ЮВ, 2 м/с50%1028 гПас прояснениями
16:00+10Ю, 2 м/с50%1027 гПаоблачно
17:00+10Ю, 2 м/с52%1027 гПаоблачно
18:00+10ЮВ, 2 м/с54%1027 гПамалооблачно
19:00+8ЮВ, 2 м/с58%1027 гПас прояснениями
20:00+7ЮВ, 2 м/с63%1026 гПаоблачно
21:00+5ЮВ, 1 м/с74%1027 гПаоблачно
22:00+3ЮВ, 1 м/с84%1027 гПаоблачно
23:00+2ЮВ, 1 м/с91%1027 гПаоблачно
22 апреля
00:00+2ЮВ, 1 м/с92%1027 гПаоблачно
01:00+2ЮВ, 1 м/с94%1026 гПаоблачно
02:00+2ЮВ, 1 м/с96%1026 гПаоблачно
03:00+2Ю, 1 м/с96%1026 гПаоблачно
04:00+2Ю, 1 м/с97%1026 гПаоблачно
05:00+2Ю, 2 м/с96%1026 гПаоблачно
06:00+2Ю, 2 м/с94%1026 гПаоблачно
07:00+3Ю, 2 м/с92%1026 гПаоблачно
08:00+5Ю, 2 м/с84%1026 гПаоблачно
09:00+8Ю, 3 м/с68%1026 гПас прояснениями
10:00+10ЮЗ, 3 м/с58%1026 гПаоблачно
11:00+12ЮЗ, 3 м/с54%1026 гПаоблачно
12:00+12ЮЗ, 3 м/с54%1026 гПаоблачно
13:00+13ЮЗ, 3 м/с52%1027 гПаоблачно
14:00+14ЮЗ, 4 м/с51%1027 гПаоблачно
15:00+14ЮЗ, 4 м/с51%1026 гПаоблачно
16:00+14ЮЗ, 3 м/с51%1026 гПаоблачно
17:00+14ЮЗ, 4 м/с51%1026 гПаоблачно
18:00+14ЮЗ, 3 м/с52%1026 гПаоблачно
19:00+13ЮЗ, 3 м/с54%1026 гПаоблачно
20:00+12ЮЗ, 3 м/с57%1025 гПаоблачно
21:00+10ЮЗ, 2 м/с60%1026 гПаоблачно
22:00+9ЮЗ, 2 м/с64%1026 гПаоблачно
23:00+8ЮЗ, 2 м/с67%1026 гПаоблачно
23 апреля
00:00+7ЮЗ, 2 м/с70%1026 гПаоблачно
01:00+6ЮЗ, 2 м/с75%1026 гПаоблачно
02:00+5ЮЗ, 2 м/с81%1026 гПамалооблачно
03:00+4ЮЗ, 2 м/с88%1026 гПас прояснениями
04:00+4ЮЗ, 2 м/с92%1026 гПаоблачно
05:00+3ЮЗ, 1 м/с95%1027 гПаоблачно
06:00+3ЮЗ, 2 м/с96%1027 гПаоблачно
07:00+4ЮЗ, 1 м/с91%1027 гПаоблачно
08:00+7ЮЗ, 2 м/с81%1027 гПаоблачно
09:00+10ЮЗ, 2 м/с70%1027 гПамалооблачно
10:00+13ЮЗ, 3 м/с62%1027 гПамалооблачно
11:00+14ЮЗ, 3 м/с57%1027 гПамалооблачно
12:00+16ЮЗ, 3 м/с54%1027 гПамалооблачно
13:00+16ЮЗ, 4 м/с52%1027 гПамалооблачно
14:00+17ЮЗ, 4 м/с49%1027 гПамалооблачно
15:00+17ЮЗ, 4 м/с48%1027 гПамалооблачно